sensor_id;sensor_type;location;lat;lon;timestamp;pressure;altitude;pressure_sealevel;temperature;humidity
46095;BME280;31832;50.746;-2.716;2024-01-30T00:00:16;-16098.26;;;7.29;100.00
46095;BME280;31832;50.746;-2.716;2024-01-30T00:02:40;-16073.64;;;6.27;100.00
46095;BME280;31832;50.746;-2.716;2024-01-30T00:05:06;-16099.09;;;7.34;100.00
46095;BME280;31832;50.746;-2.716;2024-01-30T00:07:31;-16092.45;;;7.00;100.00
46095;BME280;31832;50.746;-2.716;2024-01-30T00:09:56;-16093.63;;;7.30;100.00
46095;BME280;31832;50.746;-2.716;2024-01-30T00:12:22;-16107.50;;;7.53;100.00
46095;BME280;31832;50.746;-2.716;2024-01-30T00:14:47;-16129.04;;;8.63;100.00
46095;BME280;31832;50.746;-2.716;2024-01-30T00:17:12;-16119.11;;;8.12;100.00
46095;BME280;31832;50.746;-2.716;2024-01-30T00:19:38;-16087.63;;;6.51;100.00
46095;BME280;31832;50.746;-2.716;2024-01-30T00:22:03;-16088.86;;;6.81;100.00
46095;BME280;31832;50.746;-2.716;2024-01-30T00:24:28;-16104.18;;;7.36;100.00
46095;BME280;31832;50.746;-2.716;2024-01-30T00:26:53;-16124.34;;;8.15;100.00
46095;BME280;31832;50.746;-2.716;2024-01-30T00:29:18;-16131.02;;;8.73;100.00
46095;BME280;31832;50.746;-2.716;2024-01-30T00:31:43;-16122.85;;;8.55;100.00
46095;BME280;31832;50.746;-2.716;2024-01-30T00:34:09;-16147.78;;;9.35;100.00
46095;BME280;31832;50.746;-2.716;2024-01-30T00:36:34;-16129.74;;;8.43;100.00
46095;BME280;31832;50.746;-2.716;2024-01-30T00:39:00;-16106.48;;;7.95;100.00
46095;BME280;31832;50.746;-2.716;2024-01-30T00:41:24;-16088.42;;;7.27;100.00
46095;BME280;31832;50.746;-2.716;2024-01-30T00:43:49;-16074.70;;;7.04;100.00
46095;BME280;31832;50.746;-2.716;2024-01-30T00:46:14;-16068.86;;;6.51;100.00
46095;BME280;31832;50.746;-2.716;2024-01-30T00:48:40;-16073.09;;;6.72;100.00
46095;BME280;31832;50.746;-2.716;2024-01-30T00:51:05;-16078.44;;;7.00;100.00
46095;BME280;31832;50.746;-2.716;2024-01-30T00:53:30;-16087.63;;;7.23;100.00
46095;BME280;31832;50.746;-2.716;2024-01-30T00:55:56;-16076.08;;;7.11;100.00
46095;BME280;31832;50.746;-2.716;2024-01-30T00:58:20;-16067.27;;;6.66;100.00
46095;BME280;31832;50.746;-2.716;2024-01-30T01:00:46;-16076.45;;;6.66;100.00
46095;BME280;31832;50.746;-2.716;2024-01-30T01:03:11;-16078.73;;;6.77;100.00
46095;BME280;31832;50.746;-2.716;2024-01-30T01:05:36;-16069.65;;;6.31;100.00
46095;BME280;31832;50.746;-2.716;2024-01-30T01:08:01;-16072.62;;;6.46;100.00
46095;BME280;31832;50.746;-2.716;2024-01-30T01:10:27;-16062.27;;;6.41;100.00
46095;BME280;31832;50.746;-2.716;2024-01-30T01:12:51;-16081.40;;;6.91;100.00
46095;BME280;31832;50.746;-2.716;2024-01-30T01:15:17;-16066.42;;;6.14;100.00
46095;BME280;31832;50.746;-2.716;2024-01-30T01:17:42;-16081.58;;;6.92;100.00
46095;BME280;31832;50.746;-2.716;2024-01-30T01:20:09;-16097.08;;;7.71;100.00
46095;BME280;31832;50.746;-2.716;2024-01-30T01:22:32;-16090.01;;;7.11;100.00
46095;BME280;31832;50.746;-2.716;2024-01-30T01:24:57;-16089.33;;;7.31;100.00
46095;BME280;31832;50.746;-2.716;2024-01-30T01:27:23;-16086.59;;;6.94;100.00
46095;BME280;31832;50.746;-2.716;2024-01-30T01:29:48;-16082.24;;;6.71;100.00
46095;BME280;31832;50.746;-2.716;2024-01-30T02:20:37;-16054.78;;;6.03;100.00
46095;BME280;31832;50.746;-2.716;2024-01-30T02:23:02;-16051.62;;;5.86;100.00
46095;BME280;31832;50.746;-2.716;2024-01-30T02:25:31;-16054.07;;;6.47;100.00
46095;BME280;31832;50.746;-2.716;2024-01-30T02:27:52;-16051.41;;;5.85;100.00
46095;BME280;31832;50.746;-2.716;2024-01-30T02:30:18;-16059.04;;;6.24;100.00
46095;BME280;31832;50.746;-2.716;2024-01-30T02:32:42;-16038.13;;;5.65;100.00
46095;BME280;31832;50.746;-2.716;2024-01-30T02:35:08;-16053.96;;;5.98;100.00
46095;BME280;31832;50.746;-2.716;2024-01-30T02:37:33;-16028.02;;;5.61;100.00
46095;BME280;31832;50.746;-2.716;2024-01-30T02:39:58;-16032.54;;;5.37;100.00
46095;BME280;31832;50.746;-2.716;2024-01-30T02:42:24;-16031.98;;;5.82;100.00
46095;BME280;31832;50.746;-2.716;2024-01-30T02:44:48;-16031.86;;;5.33;100.00
46095;BME280;31832;50.746;-2.716;2024-01-30T02:47:14;-16040.92;;;5.79;100.00
46095;BME280;31832;50.746;-2.716;2024-01-30T02:49:39;-16042.71;;;5.89;100.00
46095;BME280;31832;50.746;-2.716;2024-01-30T02:52:05;-16043.87;;;5.47;100.00
46095;BME280;31832;50.746;-2.716;2024-01-30T02:54:29;-16032.57;;;5.37;100.00
46095;BME280;31832;50.746;-2.716;2024-01-30T02:56:55;-16040.83;;;5.55;100.00
46095;BME280;31832;50.746;-2.716;2024-01-30T02:59:20;-16033.87;;;5.67;100.00
46095;BME280;31832;50.746;-2.716;2024-01-30T03:01:45;-16031.33;;;5.78;100.00
46095;BME280;31832;50.746;-2.716;2024-01-30T03:04:10;-16026.23;;;5.28;100.00
46095;BME280;31832;50.746;-2.716;2024-01-30T03:06:35;-16024.13;;;5.41;100.00
46095;BME280;31832;50.746;-2.716;2024-01-30T03:09:00;-16012.40;;;4.81;100.00
46095;BME280;31832;50.746;-2.716;2024-01-30T03:11:26;-16022.99;;;5.12;100.00
46095;BME280;31832;50.746;-2.716;2024-01-30T03:13:51;-16020.74;;;5.00;100.00
46095;BME280;31832;50.746;-2.716;2024-01-30T03:16:16;-16021.67;;;5.05;100.00
46095;BME280;31832;50.746;-2.716;2024-01-30T03:18:41;-16025.05;;;5.46;100.00
46095;BME280;31832;50.746;-2.716;2024-01-30T03:21:07;-16022.80;;;5.11;100.00
46095;BME280;31832;50.746;-2.716;2024-01-30T03:23:32;-16035.96;;;5.54;100.00
46095;BME280;31832;50.746;-2.716;2024-01-30T03:25:57;-16032.35;;;5.60;100.00
46095;BME280;31832;50.746;-2.716;2024-01-30T03:28:23;-16031.54;;;5.32;100.00
46095;BME280;31832;50.746;-2.716;2024-01-30T03:30:48;-16040.26;;;5.52;100.00
46095;BME280;31832;50.746;-2.716;2024-01-30T03:33:13;-16032.06;;;5.34;100.00
46095;BME280;31832;50.746;-2.716;2024-01-30T03:35:38;-16043.83;;;5.47;100.00
46095;BME280;31832;50.746;-2.716;2024-01-30T03:38:03;-16047.23;;;5.88;100.00
46095;BME280;31832;50.746;-2.716;2024-01-30T03:40:28;-16036.12;;;5.07;100.00
46095;BME280;31832;50.746;-2.716;2024-01-30T03:42:53;-16030.74;;;5.27;100.00
46095;BME280;31832;50.746;-2.716;2024-01-30T03:47:44;-16057.55;;;6.17;100.00
46095;BME280;31832;50.746;-2.716;2024-01-30T03:50:09;-16042.15;;;5.86;100.00
46095;BME280;31832;50.746;-2.716;2024-01-30T03:52:34;-16046.90;;;5.86;100.00
46095;BME280;31832;50.746;-2.716;2024-01-30T03:54:59;-16063.10;;;6.45;100.00
46095;BME280;31832;50.746;-2.716;2024-01-30T03:57:25;-16073.79;;;6.76;100.00
46095;BME280;31832;50.746;-2.716;2024-01-30T03:59:50;-16074.14;;;7.02;100.00
46095;BME280;31832;50.746;-2.716;2024-01-30T04:02:15;-16085.53;;;7.12;100.00
46095;BME280;31832;50.746;-2.716;2024-01-30T04:04:41;-16063.91;;;6.25;100.00
46095;BME280;31832;50.746;-2.716;2024-01-30T04:07:05;-16085.70;;;7.37;100.00
46095;BME280;31832;50.746;-2.716;2024-01-30T04:09:31;-16071.39;;;6.40;100.00
46095;BME280;31832;50.746;-2.716;2024-01-30T04:11:56;-16059.11;;;6.01;100.00
46095;BME280;31832;50.746;-2.716;2024-01-30T04:14:21;-16067.13;;;6.42;100.00
46095;BME280;31832;50.746;-2.716;2024-01-30T04:16:46;-16062.25;;;6.41;100.00
46095;BME280;31832;50.746;-2.716;2024-01-30T04:19:12;-16072.53;;;6.69;100.00
46095;BME280;31832;50.746;-2.716;2024-01-30T04:21:37;-16057.86;;;6.18;100.00
46095;BME280;31832;50.746;-2.716;2024-01-30T04:24:02;-16079.99;;;7.08;100.00
46095;BME280;31832;50.746;-2.716;2024-01-30T04:26:28;-16076.75;;;6.91;100.00
46095;BME280;31832;50.746;-2.716;2024-01-30T04:28:52;-16078.86;;;7.02;100.00
46095;BME280;31832;50.746;-2.716;2024-01-30T04:31:18;-16074.88;;;6.58;100.00
46095;BME280;31832;50.746;-2.716;2024-01-30T04:33:43;-16066.28;;;6.37;100.00
46095;BME280;31832;50.746;-2.716;2024-01-30T04:36:09;-16078.71;;;6.77;100.00
46095;BME280;31832;50.746;-2.716;2024-01-30T04:38:33;-16072.71;;;6.70;100.00
46095;BME280;31832;50.746;-2.716;2024-01-30T04:40:58;-16089.90;;;7.34;100.00
46095;BME280;31832;50.746;-2.716;2024-01-30T04:43:24;-16051.76;;;5.87;100.00
46095;BME280;31832;50.746;-2.716;2024-01-30T04:45:50;-16060.96;;;6.34;100.00
46095;BME280;31832;50.746;-2.716;2024-01-30T04:48:14;-16072.01;;;6.91;100.00
46095;BME280;31832;50.746;-2.716;2024-01-30T04:50:39;-16079.09;;;6.79;100.00
46095;BME280;31832;50.746;-2.716;2024-01-30T04:53:04;-16073.70;;;6.75;100.00
46095;BME280;31832;50.746;-2.716;2024-01-30T04:55:30;-16066.84;;;6.64;100.00
46095;BME280;31832;50.746;-2.716;2024-01-30T04:57:55;-16074.54;;;6.80;100.00
46095;BME280;31832;50.746;-2.716;2024-01-30T05:00:21;-16070.78;;;6.60;100.00
46095;BME280;31832;50.746;-2.716;2024-01-30T05:02:46;-16075.49;;;6.85;100.00
46095;BME280;31832;50.746;-2.716;2024-01-30T05:05:11;-16083.58;;;7.02;100.00
46095;BME280;31832;50.746;-2.716;2024-01-30T05:07:36;-16083.29;;;7.24;100.00
46095;BME280;31832;50.746;-2.716;2024-01-30T05:10:02;-16070.55;;;6.83;100.00
46095;BME280;31832;50.746;-2.716;2024-01-30T05:12:27;-16066.89;;;6.64;100.00
46095;BME280;31832;50.746;-2.716;2024-01-30T05:14:52;-16046.14;;;5.58;100.00
46095;BME280;31832;50.746;-2.716;2024-01-30T05:17:18;-16053.30;;;5.95;100.00
46095;BME280;31832;50.746;-2.716;2024-01-30T05:19:43;-16055.83;;;6.08;100.00
46095;BME280;31832;50.746;-2.716;2024-01-30T05:22:08;-16057.97;;;6.19;100.00
46095;BME280;31832;50.746;-2.716;2024-01-30T05:24:34;-16069.27;;;6.53;100.00
46095;BME280;31832;50.746;-2.716;2024-01-30T05:26:59;-16076.62;;;6.66;100.00
46095;BME280;31832;50.746;-2.716;2024-01-30T05:29:24;-16074.64;;;6.80;100.00
46095;BME280;31832;50.746;-2.716;2024-01-30T05:31:50;-16090.22;;;7.12;100.00
46095;BME280;31832;50.746;-2.716;2024-01-30T05:34:15;-16078.71;;;6.77;100.00
46095;BME280;31832;50.746;-2.716;2024-01-30T05:36:40;-16080.50;;;6.62;100.00
46095;BME280;31832;50.746;-2.716;2024-01-30T05:39:05;-16081.52;;;6.91;100.00
46095;BME280;31832;50.746;-2.716;2024-01-30T05:41:31;-16085.06;;;7.10;100.00
46095;BME280;31832;50.746;-2.716;2024-01-30T05:43:56;-16084.12;;;7.29;100.00
46095;BME280;31832;50.746;-2.716;2024-01-30T05:46:21;-16085.82;;;7.13;100.00
46095;BME280;31832;50.746;-2.716;2024-01-30T05:48:47;-16071.76;;;6.89;100.00
46095;BME280;31832;50.746;-2.716;2024-01-30T05:51:12;-16060.40;;;6.31;100.00
46095;BME280;31832;50.746;-2.716;2024-01-30T05:53:37;-16058.16;;;6.44;100.00
46095;BME280;31832;50.746;-2.716;2024-01-30T05:56:03;-16045.22;;;5.78;100.00
46095;BME280;31832;50.746;-2.716;2024-01-30T05:58:28;-16056.57;;;6.36;100.00
46095;BME280;31832;50.746;-2.716;2024-01-30T06:00:54;-16047.62;;;5.66;100.00
46095;BME280;31832;50.746;-2.716;2024-01-30T06:03:19;-16055.33;;;6.05;100.00
46095;BME280;31832;50.746;-2.716;2024-01-30T06:05:44;-16066.08;;;6.60;100.00
46095;BME280;31832;50.746;-2.716;2024-01-30T06:08:10;-16072.40;;;6.69;100.00
46095;BME280;31832;50.746;-2.716;2024-01-30T06:10:35;-16064.34;;;6.04;100.00
46095;BME280;31832;50.746;-2.716;2024-01-30T06:13:00;-16064.32;;;6.27;100.00
46095;BME280;31832;50.746;-2.716;2024-01-30T06:15:26;-16059.69;;;6.28;100.00
46095;BME280;31832;50.746;-2.716;2024-01-30T06:17:52;-16058.03;;;5.95;100.00
46095;BME280;31832;50.746;-2.716;2024-01-30T06:20:18;-16070.77;;;6.37;100.00
46095;BME280;31832;50.746;-2.716;2024-01-30T06:22:43;-16084.76;;;7.08;100.00
46095;BME280;31832;50.746;-2.716;2024-01-30T06:25:08;-16079.57;;;6.82;100.00
46095;BME280;31832;50.746;-2.716;2024-01-30T06:27:34;-16079.34;;;6.80;100.00
46095;BME280;31832;50.746;-2.716;2024-01-30T06:30:01;-16045.97;;;5.81;100.00
46095;BME280;31832;50.746;-2.716;2024-01-30T06:32:25;-16043.05;;;5.43;100.00
46095;BME280;31832;50.746;-2.716;2024-01-30T06:34:50;-16062.20;;;6.40;100.00
46095;BME280;31832;50.746;-2.716;2024-01-30T06:37:16;-16070.12;;;6.33;100.00
46095;BME280;31832;50.746;-2.716;2024-01-30T06:39:41;-16063.85;;;6.25;100.00
46095;BME280;31832;50.746;-2.716;2024-01-30T06:42:07;-16071.38;;;6.40;100.00
46095;BME280;31832;50.746;-2.716;2024-01-30T06:44:32;-16072.47;;;6.45;100.00
46095;BME280;31832;50.746;-2.716;2024-01-30T06:46:58;-16055.27;;;5.81;100.00
46095;BME280;31832;50.746;-2.716;2024-01-30T06:49:23;-16067.66;;;6.45;100.00
46095;BME280;31832;50.746;-2.716;2024-01-30T06:51:48;-16062.99;;;5.97;100.00
46095;BME280;31832;50.746;-2.716;2024-01-30T06:54:14;-16072.94;;;6.48;100.00
46095;BME280;31832;50.746;-2.716;2024-01-30T06:56:39;-16079.22;;;6.80;100.00
46095;BME280;31832;50.746;-2.716;2024-01-30T06:59:04;-16074.78;;;7.05;100.00
46095;BME280;31832;50.746;-2.716;2024-01-30T07:01:29;-16070.54;;;6.83;100.00
46095;BME280;31832;50.746;-2.716;2024-01-30T07:03:55;-16087.02;;;7.20;100.00
46095;BME280;31832;50.746;-2.716;2024-01-30T07:06:20;-16076.89;;;6.68;100.00
46095;BME280;31832;50.746;-2.716;2024-01-30T07:08:45;-16071.42;;;6.88;100.00
46095;BME280;31832;50.746;-2.716;2024-01-30T07:11:10;-16074.96;;;6.82;100.00
46095;BME280;31832;50.746;-2.716;2024-01-30T07:13:35;-16082.74;;;6.98;100.00
46095;BME280;31832;50.746;-2.716;2024-01-30T07:16:01;-16061.99;;;6.15;100.00
46095;BME280;31832;50.746;-2.716;2024-01-30T07:18:27;-16047.13;;;5.63;100.00
46095;BME280;31832;50.746;-2.716;2024-01-30T07:20:52;-16044.67;;;5.51;100.00
46095;BME280;31832;50.746;-2.716;2024-01-30T07:23:18;-16063.84;;;6.25;100.00
46095;BME280;31832;50.746;-2.716;2024-01-30T07:25:44;-16086.68;;;7.42;100.00
46095;BME280;31832;50.746;-2.716;2024-01-30T07:28:09;-16075.35;;;6.60;100.00
46095;BME280;31832;50.746;-2.716;2024-01-30T07:30:35;-16066.52;;;6.63;100.00
46095;BME280;31832;50.746;-2.716;2024-01-30T07:33:00;-16047.22;;;5.64;100.00
46095;BME280;31832;50.746;-2.716;2024-01-30T07:35:26;-16047.51;;;5.65;100.00
46095;BME280;31832;50.746;-2.716;2024-01-30T07:37:57;-16058.98;;;6.24;100.00
46095;BME280;31832;50.746;-2.716;2024-01-30T07:40:18;-16054.45;;;6.01;100.00
46095;BME280;31832;50.746;-2.716;2024-01-30T07:42:43;-16056.25;;;6.10;100.00
46095;BME280;31832;50.746;-2.716;2024-01-30T07:45:09;-16068.54;;;6.25;100.00
46095;BME280;31832;50.746;-2.716;2024-01-30T07:47:34;-16072.78;;;6.71;100.00
46095;BME280;31832;50.746;-2.716;2024-01-30T07:50:00;-16070.05;;;6.33;100.00
46095;BME280;31832;50.746;-2.716;2024-01-30T07:52:26;-16056.77;;;6.13;100.00
46095;BME280;31832;50.746;-2.716;2024-01-30T07:54:51;-16057.63;;;6.17;100.00
46095;BME280;31832;50.746;-2.716;2024-01-30T07:57:16;-16060.17;;;6.06;100.00
46095;BME280;31832;50.746;-2.716;2024-01-30T07:59:42;-16053.04;;;5.94;100.00
46095;BME280;31832;50.746;-2.716;2024-01-30T08:02:06;-16059.11;;;6.25;100.00
46095;BME280;31832;50.746;-2.716;2024-01-30T08:04:32;-16066.18;;;6.37;100.00
46095;BME280;31832;50.746;-2.716;2024-01-30T08:06:57;-16071.98;;;6.43;100.00
46095;BME280;31832;50.746;-2.716;2024-01-30T08:09:22;-16083.05;;;7.23;100.00
46095;BME280;31832;50.746;-2.716;2024-01-30T08:11:48;-16086.93;;;7.19;100.00
46095;BME280;31832;50.746;-2.716;2024-01-30T08:14:13;-16073.04;;;6.48;100.00
46095;BME280;31832;50.746;-2.716;2024-01-30T08:16:38;-16056.75;;;6.13;100.00
46095;BME280;31832;50.746;-2.716;2024-01-30T08:19:04;-16061.81;;;6.15;100.00
46095;BME280;31832;50.746;-2.716;2024-01-30T08:21:29;-16064.93;;;6.31;100.00
46095;BME280;31832;50.746;-2.716;2024-01-30T08:23:54;-16076.94;;;6.68;100.00
46095;BME280;31832;50.746;-2.716;2024-01-30T08:26:19;-16096.47;;;7.68;100.00
46095;BME280;31832;50.746;-2.716;2024-01-30T08:28:45;-16082.93;;;6.99;100.00
46095;BME280;31832;50.746;-2.716;2024-01-30T08:31:10;-16072.54;;;6.46;100.00
46095;BME280;31832;50.746;-2.716;2024-01-30T08:33:35;-16052.80;;;5.92;100.00
46095;BME280;31832;50.746;-2.716;2024-01-30T08:36:01;-16037.68;;;5.15;100.00
46095;BME280;31832;50.746;-2.716;2024-01-30T08:38:26;-16052.30;;;5.90;100.00
46095;BME280;31832;50.746;-2.716;2024-01-30T08:40:51;-16060.52;;;6.32;100.00
46095;BME280;31832;50.746;-2.716;2024-01-30T08:43:17;-16046.41;;;5.36;100.00
46095;BME280;31832;50.746;-2.716;2024-01-30T08:45:43;-16039.47;;;5.24;100.00
46095;BME280;31832;50.746;-2.716;2024-01-30T08:48:07;-16044.67;;;5.51;100.00
46095;BME280;31832;50.746;-2.716;2024-01-30T08:50:33;-16057.49;;;5.92;100.00
46095;BME280;31832;50.746;-2.716;2024-01-30T08:52:58;-16056.86;;;6.13;100.00
46095;BME280;31832;50.746;-2.716;2024-01-30T08:55:23;-16065.18;;;6.32;100.00
46095;BME280;31832;50.746;-2.716;2024-01-30T08:57:49;-16054.39;;;6.01;100.00
46095;BME280;31832;50.746;-2.716;2024-01-30T09:00:15;-16055.57;;;6.07;100.00
46095;BME280;31832;50.746;-2.716;2024-01-30T09:02:39;-16050.61;;;5.57;100.00
46095;BME280;31832;50.746;-2.716;2024-01-30T09:05:05;-16063.18;;;6.46;100.00
46095;BME280;31832;50.746;-2.716;2024-01-30T09:07:30;-16026.58;;;5.06;100.00
46095;BME280;31832;50.746;-2.716;2024-01-30T09:09:55;-16041.32;;;5.58;100.00
46095;BME280;31832;50.746;-2.716;2024-01-30T09:12:20;-16040.47;;;5.29;100.00
46095;BME280;31832;50.746;-2.716;2024-01-30T09:14:45;-16039.22;;;5.23;100.00
46095;BME280;31832;50.746;-2.716;2024-01-30T09:17:11;-16044.82;;;5.52;100.00
46095;BME280;31832;50.746;-2.716;2024-01-30T09:19:37;-16037.38;;;5.14;100.00
46095;BME280;31832;50.746;-2.716;2024-01-30T09:22:02;-16030.04;;;5.00;100.00
46095;BME280;31832;50.746;-2.716;2024-01-30T09:24:28;-16040.58;;;5.54;100.00
46095;BME280;31832;50.746;-2.716;2024-01-30T09:26:52;-16037.64;;;5.15;100.00
46095;BME280;31832;50.746;-2.716;2024-01-30T09:29:18;-16014.44;;;4.44;100.00
46095;BME280;31832;50.746;-2.716;2024-01-30T09:31:43;-16009.20;;;4.17;100.00
46095;BME280;31832;50.746;-2.716;2024-01-30T09:34:09;-16015.73;;;4.51;100.00
46095;BME280;31832;50.746;-2.716;2024-01-30T09:36:34;-16022.07;;;4.83;100.00
46095;BME280;31832;50.746;-2.716;2024-01-30T09:38:59;-16025.67;;;5.01;100.00
46095;BME280;31832;50.746;-2.716;2024-01-30T09:41:25;-16017.07;;;4.58;100.00
46095;BME280;31832;50.746;-2.716;2024-01-30T09:43:51;-16041.32;;;5.82;100.00
46095;BME280;31832;50.746;-2.716;2024-01-30T09:46:17;-16048.74;;;5.72;100.00
46095;BME280;31832;50.746;-2.716;2024-01-30T09:48:42;-16020.11;;;4.25;100.00
46095;BME280;31832;50.746;-2.716;2024-01-30T09:51:08;-16035.69;;;5.53;100.00
46095;BME280;31832;50.746;-2.716;2024-01-30T09:53:32;-16049.25;;;5.74;100.00
46095;BME280;31832;50.746;-2.716;2024-01-30T09:55:58;-16043.19;;;5.43;100.00
46095;BME280;31832;50.746;-2.716;2024-01-30T09:58:22;-16051.83;;;5.87;100.00
46095;BME280;31832;50.746;-2.716;2024-01-30T10:00:48;-16052.10;;;5.89;100.00
46095;BME280;31832;50.746;-2.716;2024-01-30T10:03:13;-16057.19;;;5.91;100.00
46095;BME280;31832;50.746;-2.716;2024-01-30T10:05:53;-16057.18;;;6.15;100.00
46095;BME280;31832;50.746;-2.716;2024-01-30T10:08:06;-16059.83;;;6.04;100.00
46095;BME280;31832;50.746;-2.716;2024-01-30T10:10:30;-16042.93;;;5.66;100.00
46095;BME280;31832;50.746;-2.716;2024-01-30T10:12:54;-16035.79;;;5.53;100.00
46095;BME280;31832;50.746;-2.716;2024-01-30T10:15:20;-16048.96;;;5.97;100.00
46095;BME280;31832;50.746;-2.716;2024-01-30T10:17:46;-16049.00;;;6.21;100.00
46095;BME280;31832;50.746;-2.716;2024-01-30T10:20:18;-16054.07;;;6.23;100.00
46095;BME280;31832;50.746;-2.716;2024-01-30T10:22:38;-16055.74;;;6.07;100.00
46095;BME280;31832;50.746;-2.716;2024-01-30T10:25:03;-16034.55;;;5.47;100.00
46095;BME280;31832;50.746;-2.716;2024-01-30T10:27:29;-16024.25;;;5.18;100.00
46095;BME280;31832;50.746;-2.716;2024-01-30T10:29:54;-16046.75;;;5.85;100.00
46095;BME280;31832;50.746;-2.716;2024-01-30T10:32:20;-16050.55;;;6.05;100.00
46095;BME280;31832;50.746;-2.716;2024-01-30T10:34:44;-16056.08;;;6.57;100.00
46095;BME280;31832;50.746;-2.716;2024-01-30T10:37:10;-16056.14;;;6.33;100.00
46095;BME280;31832;50.746;-2.716;2024-01-30T10:39:38;-16064.79;;;6.54;100.00
46095;BME280;31832;50.746;-2.716;2024-01-30T10:42:05;-16059.23;;;6.73;100.00
46095;BME280;31832;50.746;-2.716;2024-01-30T10:44:26;-16060.28;;;6.31;100.00
46095;BME280;31832;50.746;-2.716;2024-01-30T10:46:55;-16060.77;;;6.33;100.00
46095;BME280;31832;50.746;-2.716;2024-01-30T10:49:17;-16038.01;;;5.65;100.00
46095;BME280;31832;50.746;-2.716;2024-01-30T10:51:42;-16053.42;;;5.96;100.00
46095;BME280;31832;50.746;-2.716;2024-01-30T10:54:08;-16053.63;;;5.97;100.00
46095;BME280;31832;50.746;-2.716;2024-01-30T10:56:32;-16035.26;;;5.74;100.00
46095;BME280;31832;50.746;-2.716;2024-01-30T10:58:57;-16045.02;;;6.00;100.00
46095;BME280;31832;50.746;-2.716;2024-01-30T11:01:23;-16048.14;;;6.16;100.00
46095;BME280;31832;50.746;-2.716;2024-01-30T11:03:49;-16055.06;;;6.28;100.00
46095;BME280;31832;50.746;-2.716;2024-01-30T11:06:14;-16035.92;;;5.54;100.00
46095;BME280;31832;50.746;-2.716;2024-01-30T11:08:38;-16048.68;;;5.95;100.00
46095;BME280;31832;50.746;-2.716;2024-01-30T11:11:09;-16043.81;;;5.70;100.00
46095;BME280;31832;50.746;-2.716;2024-01-30T11:13:29;-16044.55;;;5.98;100.00
46095;BME280;31832;50.746;-2.716;2024-01-30T11:15:54;-16041.29;;;5.81;100.00
46095;BME280;31832;50.746;-2.716;2024-01-30T11:18:25;-16035.29;;;5.51;100.00
46095;BME280;31832;50.746;-2.716;2024-01-30T11:20:47;-16056.37;;;6.11;100.00
46095;BME280;31832;50.746;-2.716;2024-01-30T11:23:12;-16071.24;;;6.63;100.00
46095;BME280;31832;50.746;-2.716;2024-01-30T11:25:36;-16058.01;;;6.43;100.00
46095;BME280;31832;50.746;-2.716;2024-01-30T11:28:00;-16055.35;;;6.53;100.00
46095;BME280;31832;50.746;-2.716;2024-01-30T11:30:27;-16036.05;;;5.78;100.00
46095;BME280;31832;50.746;-2.716;2024-01-30T11:33:00;-16052.38;;;6.14;100.00
46095;BME280;31832;50.746;-2.716;2024-01-30T11:35:16;-16064.73;;;6.53;100.00
46095;BME280;31832;50.746;-2.716;2024-01-30T11:37:43;-16071.02;;;6.86;100.00
46095;BME280;31832;50.746;-2.716;2024-01-30T11:40:08;-16064.46;;;6.76;100.00
46095;BME280;31832;50.746;-2.716;2024-01-30T11:42:32;-16059.05;;;6.24;100.00
46095;BME280;31832;50.746;-2.716;2024-01-30T11:45:00;-16064.58;;;6.53;100.00
46095;BME280;31832;50.746;-2.716;2024-01-30T11:47:23;-16069.09;;;6.76;100.00
46095;BME280;31832;50.746;-2.716;2024-01-30T11:49:48;-16060.78;;;6.33;100.00
46095;BME280;31832;50.746;-2.716;2024-01-30T11:52:13;-16077.57;;;7.19;100.00
46095;BME280;31832;50.746;-2.716;2024-01-30T11:54:40;-16073.57;;;6.75;100.00
46095;BME280;31832;50.746;-2.716;2024-01-30T11:57:05;-16085.41;;;7.11;100.00
46095;BME280;31832;50.746;-2.716;2024-01-30T11:59:29;-16064.62;;;6.29;100.00
46095;BME280;31832;50.746;-2.716;2024-01-30T12:01:55;-16067.99;;;6.70;100.00
46095;BME280;31832;50.746;-2.716;2024-01-30T12:04:20;-16070.64;;;6.84;100.00
46095;BME280;31832;50.746;-2.716;2024-01-30T12:06:51;-16065.72;;;6.58;100.00
46095;BME280;31832;50.746;-2.716;2024-01-30T12:09:11;-16080.23;;;7.09;100.00
46095;BME280;31832;50.746;-2.716;2024-01-30T12:11:44;-16085.55;;;7.36;100.00
46095;BME280;31832;50.746;-2.716;2024-01-30T12:14:02;-16074.49;;;7.03;100.00
46095;BME280;31832;50.746;-2.716;2024-01-30T12:16:27;-16096.67;;;7.69;100.00
46095;BME280;31832;50.746;-2.716;2024-01-30T12:19:00;-16093.98;;;7.55;100.00
46095;BME280;31832;50.746;-2.716;2024-01-30T12:21:18;-16095.78;;;7.64;100.00
46095;BME280;31832;50.746;-2.716;2024-01-30T12:23:42;-16086.44;;;7.17;100.00
46095;BME280;31832;50.746;-2.716;2024-01-30T12:26:08;-16103.91;;;8.06;100.00
46095;BME280;31832;50.746;-2.716;2024-01-30T12:28:33;-16089.53;;;7.56;100.00
46095;BME280;31832;50.746;-2.716;2024-01-30T12:31:01;-16094.04;;;7.56;100.00
46095;BME280;31832;50.746;-2.716;2024-01-30T12:33:26;-16059.94;;;6.29;100.00
46095;BME280;31832;50.746;-2.716;2024-01-30T12:35:49;-16061.69;;;6.38;100.00
46095;BME280;31832;50.746;-2.716;2024-01-30T12:38:14;-16055.82;;;6.32;100.00
46095;BME280;31832;50.746;-2.716;2024-01-30T12:40:40;-16055.17;;;6.05;100.00
46095;BME280;31832;50.746;-2.716;2024-01-30T12:43:05;-16073.29;;;6.49;100.00
46095;BME280;31832;50.746;-2.716;2024-01-30T12:45:30;-16077.92;;;6.73;100.00
46095;BME280;31832;50.746;-2.716;2024-01-30T12:47:55;-16078.22;;;6.99;100.00
46095;BME280;31832;50.746;-2.716;2024-01-30T12:50:21;-16064.89;;;6.54;100.00
46095;BME280;31832;50.746;-2.716;2024-01-30T12:52:47;-16071.97;;;6.90;100.00
46095;BME280;31832;50.746;-2.716;2024-01-30T12:55:12;-16086.84;;;7.43;100.00
46095;BME280;31832;50.746;-2.716;2024-01-30T12:57:37;-16086.39;;;7.16;100.00
46095;BME280;31832;50.746;-2.716;2024-01-30T13:00:02;-16083.93;;;7.04;100.00
46095;BME280;31832;50.746;-2.716;2024-01-30T13:02:27;-16109.85;;;7.89;100.00
46095;BME280;31832;50.746;-2.716;2024-01-30T13:04:54;-16108.79;;;7.83;100.00
46095;BME280;31832;50.746;-2.716;2024-01-30T13:07:18;-16122.34;;;8.53;100.00
46095;BME280;31832;50.746;-2.716;2024-01-30T13:09:43;-16090.44;;;7.37;100.00
46095;BME280;31832;50.746;-2.716;2024-01-30T13:12:09;-16103.43;;;8.04;100.00
46095;BME280;31832;50.746;-2.716;2024-01-30T13:14:34;-16096.68;;;7.45;100.00
46095;BME280;31832;50.746;-2.716;2024-01-30T13:17:01;-16113.22;;;8.06;100.00
46095;BME280;31832;50.746;-2.716;2024-01-30T13:19:25;-16141.26;;;9.25;100.00